F/V Renaissance II — FMEW — position and weather

sailwx.info

Track history (hours):
 
Tides and Currents Weather Stations Pressure Air Temp Water Temp Dewpoint Dewpoint Depression Visibility Wind Speed Wind Dir Waves Ship Positions

F/V Renaissance II

Last reported at 2015-May-29 05:33 UTC. Time now 2015-May-29 06:23 UTC.
Position N 46°01' W 001°42'.

Length 18 m.

Type: Fishing. MMSI: 228216600.

Date/timePositionNaut miles runAvg speedWind from/ knotsBaromVisibWave heightAir tempDewpointWater temp
2015-May-29 05:33N 46°01' W 001°42'14 9.9
2015-May-29 04:05N 46°15' W 001°45'5 9.9
2015-May-29 03:33N 46°21' W 001°46'9 9.3
2015-May-29 02:33N 46°30' W 001°47'0 0.0
2015-May-29 01:33N 46°30' W 001°47'0 0.2
2015-May-29 00:33N 46°30' W 001°47'7 7.1
2015-May-28 23:33N 46°23' W 001°46'10 9.6
2015-May-28 22:33N 46°13' W 001°44'11 9.6
2015-May-28 21:28N 46°03' W 001°42'61 8.4
2015-May-28 14:14N 45°03' W 001°31'6 0.6
2015-May-28 04:21N 44°56' W 001°30'2 2.7
2015-May-28 03:31N 44°54' W 001°30'1 0.7
2015-May-28 02:33N 44°55' W 001°30'1 0.8
2015-May-28 01:28N 44°56' W 001°30'1 0.8
2015-May-28 00:33N 44°56' W 001°30'1 0.9
2015-May-27 23:30N 44°57' W 001°30'1 0.9
2015-May-27 22:33N 44°58' W 001°30'1 0.8
2015-May-27 21:34N 44°59' W 001°30'1 0.7
2015-May-27 20:34N 44°59' W 001°30'1 0.7
2015-May-27 19:33N 45°00' W 001°30'2 1.7
2015-May-27 18:33N 45°02' W 001°31'1 0.7
2015-May-27 17:33N 45°01' W 001°32'1 0.8
2015-May-27 16:33N 45°02' W 001°32'1 1.3
2015-May-27 15:34N 45°02' W 001°30'1 0.6
2015-May-27 14:32N 45°03' W 001°31'2 1.7
2015-May-27 13:33N 45°04' W 001°30'2 1.7
2015-May-27 12:32N 45°05' W 001°31'1 0.4
2015-May-27 09:30N 45°07' W 001°31'23 9.6
2015-May-27 07:09N 45°29' W 001°35'45 9.7
2015-May-27 02:31N 46°14' W 001°45'1010.0
2015-May-27 01:33N 46°23' W 001°47'7 6.9
2015-May-27 00:33N 46°30' W 001°47'2 1.8
2015-May-26 23:33N 46°28' W 001°47'94 2.5
2015-May-25 10:04N 44°55' W 001°32'1 0.5
2015-May-25 07:31N 44°54' W 001°33'1 0.6
2015-May-25 06:22N 44°54' W 001°34'0 0.4
2015-May-25 05:33N 44°54' W 001°35'60 8.5
2015-May-24 22:33N 45°54' W 001°42'9 9.1
2015-May-24 21:32N 46°03' W 001°43'10 9.4
2015-May-24 20:28N 46°13' W 001°45'8 9.4
2015-May-24 19:33N 46°22' W 001°46'8 8.2
2015-May-24 18:33N 46°30' W 001°47'4 3.8
2015-May-24 17:33N 46°27' W 001°50'9 8.9
2015-May-24 16:31N 46°21' W 002°01'16 3.5
2015-May-24 12:04N 46°12' W 002°20'2 2.5
2015-May-24 11:28N 46°11' W 002°18'12 2.8
2015-May-24 07:13N 46°19' W 002°05'7 9.9
2015-May-24 06:33N 46°23' W 001°57'9 9.1
2015-May-24 05:34N 46°30' W 001°48'0 0.3
2015-May-24 04:34N 46°30' W 001°47'0 0.2
2015-May-24 03:34N 46°30' W 001°47'7 6.8
2015-May-24 02:33N 46°23' W 001°46'87 7.2
2015-May-23 14:32N 44°56' W 001°37'1 0.4
2015-May-23 12:33N 44°56' W 001°36'2 2.1
2015-May-23 11:23N 44°54' W 001°33'2 0.9
2015-May-23 09:19N 44°55' W 001°36'1 0.7
2015-May-23 08:32N 44°55' W 001°35'0 0.4
2015-May-23 07:26N 44°55' W 001°35'0 0.2
2015-May-23 06:27N 44°55' W 001°35'3 2.1
2015-May-23 05:13N 44°54' W 001°38'60 2.1
2015-May-22 00:10N 45°54' W 001°54'13 8.3
2015-May-21 22:34N 46°07' W 001°51'9 8.6
2015-May-21 21:33N 46°15' W 001°50'9 9.0
2015-May-21 20:33N 46°24' W 001°48'6 5.6
2015-May-21 19:33N 46°30' W 001°47'3 3.5
2015-May-21 18:34N 46°27' W 001°50'9 8.5
2015-May-21 17:33N 46°22' W 001°60'5 0.3
2015-May-20 23:26N 46°16' W 001°59'6 6.9
2015-May-20 22:33N 46°21' W 001°53'7 6.9
2015-May-20 21:33N 46°27' W 001°48'3 3.1
2015-May-20 20:34N 46°30' W 001°47'6 5.7
2015-May-20 19:34N 46°26' W 001°52'9 8.2
2015-May-20 18:28N 46°20' W 002°03'  
Track history (hours):
 
Tides and Currents Weather Stations Pressure Air Temp Water Temp Dewpoint Dewpoint Depression Visibility Wind Speed Wind Dir Waves Ship Positions

F/V Renaissance II

Last reported at 2015-May-29 05:33 UTC. Time now 2015-May-29 06:23 UTC.
Position N 46°01' W 001°42'.

Length 18 m.

Type: Fishing. MMSI: 228216600.

Date/timePositionNaut miles runAvg speedWind from/ knotsBaromVisibWave heightAir tempDewpointWater temp
2015-May-29 05:33N 46°01' W 001°42'14 9.9
2015-May-29 04:05N 46°15' W 001°45'5 9.9
2015-May-29 03:33N 46°21' W 001°46'9 9.3
2015-May-29 02:33N 46°30' W 001°47'0 0.0
2015-May-29 01:33N 46°30' W 001°47'0 0.2
2015-May-29 00:33N 46°30' W 001°47'7 7.1
2015-May-28 23:33N 46°23' W 001°46'10 9.6
2015-May-28 22:33N 46°13' W 001°44'11 9.6
2015-May-28 21:28N 46°03' W 001°42'61 8.4
2015-May-28 14:14N 45°03' W 001°31'6 0.6
2015-May-28 04:21N 44°56' W 001°30'2 2.7
2015-May-28 03:31N 44°54' W 001°30'1 0.7
2015-May-28 02:33N 44°55' W 001°30'1 0.8
2015-May-28 01:28N 44°56' W 001°30'1 0.8
2015-May-28 00:33N 44°56' W 001°30'1 0.9
2015-May-27 23:30N 44°57' W 001°30'1 0.9
2015-May-27 22:33N 44°58' W 001°30'1 0.8
2015-May-27 21:34N 44°59' W 001°30'1 0.7
2015-May-27 20:34N 44°59' W 001°30'1 0.7
2015-May-27 19:33N 45°00' W 001°30'2 1.7
2015-May-27 18:33N 45°02' W 001°31'1 0.7
2015-May-27 17:33N 45°01' W 001°32'1 0.8
2015-May-27 16:33N 45°02' W 001°32'1 1.3
2015-May-27 15:34N 45°02' W 001°30'1 0.6
2015-May-27 14:32N 45°03' W 001°31'2 1.7
2015-May-27 13:33N 45°04' W 001°30'2 1.7
2015-May-27 12:32N 45°05' W 001°31'1 0.4
2015-May-27 09:30N 45°07' W 001°31'23 9.6
2015-May-27 07:09N 45°29' W 001°35'45 9.7
2015-May-27 02:31N 46°14' W 001°45'1010.0
2015-May-27 01:33N 46°23' W 001°47'7 6.9
2015-May-27 00:33N 46°30' W 001°47'2 1.8
2015-May-26 23:33N 46°28' W 001°47'94 2.5
2015-May-25 10:04N 44°55' W 001°32'1 0.5
2015-May-25 07:31N 44°54' W 001°33'1 0.6
2015-May-25 06:22N 44°54' W 001°34'0 0.4
2015-May-25 05:33N 44°54' W 001°35'60 8.5
2015-May-24 22:33N 45°54' W 001°42'9 9.1
2015-May-24 21:32N 46°03' W 001°43'10 9.4
2015-May-24 20:28N 46°13' W 001°45'8 9.4
2015-May-24 19:33N 46°22' W 001°46'8 8.2
2015-May-24 18:33N 46°30' W 001°47'4 3.8
2015-May-24 17:33N 46°27' W 001°50'9 8.9
2015-May-24 16:31N 46°21' W 002°01'16 3.5
2015-May-24 12:04N 46°12' W 002°20'2 2.5
2015-May-24 11:28N 46°11' W 002°18'12 2.8
2015-May-24 07:13N 46°19' W 002°05'7 9.9
2015-May-24 06:33N 46°23' W 001°57'9 9.1
2015-May-24 05:34N 46°30' W 001°48'0 0.3
2015-May-24 04:34N 46°30' W 001°47'0 0.2
2015-May-24 03:34N 46°30' W 001°47'7 6.8
2015-May-24 02:33N 46°23' W 001°46'87 7.2
2015-May-23 14:32N 44°56' W 001°37'1 0.4
2015-May-23 12:33N 44°56' W 001°36'2 2.1
2015-May-23 11:23N 44°54' W 001°33'2 0.9
2015-May-23 09:19N 44°55' W 001°36'1 0.7
2015-May-23 08:32N 44°55' W 001°35'0 0.4
2015-May-23 07:26N 44°55' W 001°35'0 0.2
2015-May-23 06:27N 44°55' W 001°35'3 2.1
2015-May-23 05:13N 44°54' W 001°38'60 2.1
2015-May-22 00:10N 45°54' W 001°54'13 8.3
2015-May-21 22:34N 46°07' W 001°51'9 8.6
2015-May-21 21:33N 46°15' W 001°50'9 9.0
2015-May-21 20:33N 46°24' W 001°48'6 5.6
2015-May-21 19:33N 46°30' W 001°47'3 3.5
2015-May-21 18:34N 46°27' W 001°50'9 8.5
2015-May-21 17:33N 46°22' W 001°60'5 0.3
2015-May-20 23:26N 46°16' W 001°59'6 6.9
2015-May-20 22:33N 46°21' W 001°53'7 6.9
2015-May-20 21:33N 46°27' W 001°48'3 3.1
2015-May-20 20:34N 46°30' W 001°47'6 5.7
2015-May-20 19:34N 46°26' W 001°52'9 8.2
2015-May-20 18:28N 46°20' W 002°03'  

Dump ship's entire track history